createdAt,value
2018-12-27T00:00:31.486Z,1.00
2018-12-27T00:05:35.571Z,1.00
2018-12-27T00:10:39.962Z,0.25
2018-12-27T00:15:44.021Z,0.00
2018-12-27T00:20:48.074Z,1.00
2018-12-27T00:25:52.461Z,1.00
2018-12-27T00:30:56.753Z,2.00
2018-12-27T00:36:01.072Z,1.00
2018-12-27T00:41:05.359Z,1.60
2018-12-27T00:46:09.621Z,1.00
2018-12-27T00:51:13.920Z,2.25
2018-12-27T00:56:18.169Z,2.00
2018-12-27T01:01:22.477Z,2.60
2018-12-27T01:06:26.803Z,2.67
2018-12-27T01:11:31.049Z,3.00
2018-12-27T01:16:35.332Z,2.00
2018-12-27T01:21:39.703Z,3.00
2018-12-27T01:26:43.981Z,2.50
2018-12-27T01:31:50.697Z,2.80
2018-12-27T01:36:55.743Z,2.60
2018-12-27T01:41:59.992Z,3.00
2018-12-27T01:47:04.424Z,2.00
2018-12-27T01:52:08.759Z,2.20
2018-12-27T01:57:13.187Z,2.00
2018-12-27T02:02:17.578Z,2.50
2018-12-27T02:07:21.772Z,3.75
2018-12-27T02:12:26.095Z,1.67
2018-12-27T02:17:30.442Z,2.80
2018-12-27T02:22:37.222Z,3.00
2018-12-27T02:27:41.660Z,2.20
2018-12-27T02:32:45.947Z,2.50
2018-12-27T02:37:50.299Z,2.80
2018-12-27T02:42:54.558Z,2.25
2018-12-27T02:47:58.887Z,2.40
2018-12-27T02:53:04.491Z,2.75
2018-12-27T02:58:08.672Z,3.00
2018-12-27T03:03:13.022Z,2.25
2018-12-27T03:08:17.333Z,2.00
2018-12-27T03:13:21.557Z,2.00
2018-12-27T03:18:28.180Z,2.00
2018-12-27T03:23:32.560Z,3.00
2018-12-27T03:28:36.866Z,4.00
2018-12-27T03:33:41.356Z,2.40
2018-12-27T03:38:45.673Z,2.20
2018-12-27T03:43:49.904Z,2.75
2018-12-27T03:48:54.170Z,3.00
2018-12-27T03:53:58.402Z,2.00
2018-12-27T03:59:02.624Z,3.00
2018-12-27T04:04:06.772Z,2.00
2018-12-27T04:09:11.091Z,2.40
2018-12-27T04:14:15.340Z,2.20
2018-12-27T04:19:19.416Z,2.60
2018-12-27T04:24:24.435Z,3.00
2018-12-27T04:29:28.705Z,2.25
2018-12-27T04:34:33.723Z,3.00
2018-12-27T04:39:37.952Z,4.00
2018-12-27T04:44:42.808Z,2.75
2018-12-27T04:49:47.101Z,2.50
2018-12-27T04:54:51.311Z,2.25
2018-12-27T04:59:55.478Z,4.00
2018-12-27T05:04:59.727Z,2.80
2018-12-27T05:10:04.318Z,3.00
2018-12-27T05:15:08.535Z,3.00
2018-12-27T05:20:12.795Z,3.00
2018-12-27T05:25:16.900Z,3.00
2018-12-27T05:30:21.017Z,2.60
2018-12-27T05:35:25.158Z,2.20
2018-12-27T05:40:29.271Z,2.60
2018-12-27T05:45:33.494Z,3.00
2018-12-27T05:50:37.551Z,3.00
2018-12-27T05:55:41.688Z,2.00
2018-12-27T06:00:48.540Z,2.40
2018-12-27T06:05:52.927Z,3.00
2018-12-27T06:10:57.210Z,2.00
2018-12-27T06:16:01.530Z,2.50
2018-12-27T06:21:05.798Z,3.00
2018-12-27T06:26:09.991Z,2.60
2018-12-27T06:31:14.354Z,3.20
2018-12-27T06:36:18.738Z,2.50
2018-12-27T06:41:23.112Z,2.00
2018-12-27T06:46:27.204Z,3.00
2018-12-27T06:51:31.480Z,3.60
2018-12-27T06:56:35.763Z,2.00
2018-12-27T07:01:40.067Z,3.00
2018-12-27T07:06:44.401Z,3.00
2018-12-27T07:11:48.853Z,2.20
2018-12-27T07:16:53.308Z,3.00
2018-12-27T07:21:57.382Z,2.00
2018-12-27T07:27:01.504Z,2.00
2018-12-27T07:32:05.557Z,2.00
2018-12-27T07:37:09.709Z,2.75
2018-12-27T07:42:13.831Z,2.50
2018-12-27T07:47:18.003Z,3.00
2018-12-27T07:52:22.099Z,2.40
2018-12-27T07:57:26.169Z,2.00
2018-12-27T08:02:30.245Z,2.75
2018-12-27T08:07:34.380Z,2.80
2018-12-27T08:12:38.514Z,2.00
2018-12-27T08:17:42.691Z,1.25
2018-12-27T08:22:46.979Z,2.00
2018-12-27T08:27:51.067Z,2.00
2018-12-27T08:32:55.098Z,2.00
2018-12-27T08:37:59.240Z,7.60
2018-12-27T08:43:03.280Z,6.00
2018-12-27T08:48:07.358Z,4.00
2018-12-27T08:53:11.403Z,5.00
2018-12-27T08:58:15.427Z,4.00
2018-12-27T09:03:19.452Z,4.00
2018-12-27T09:08:23.489Z,3.40
2018-12-27T09:13:27.551Z,3.00
2018-12-27T09:18:31.684Z,3.00
2018-12-27T09:23:35.751Z,2.00
2018-12-27T09:28:39.795Z,2.00
2018-12-27T09:33:43.819Z,2.25
2018-12-27T09:38:47.854Z,2.00
2018-12-27T09:43:53.619Z,3.00
2018-12-27T09:48:57.660Z,4.00
2018-12-27T09:54:01.703Z,3.00
2018-12-27T09:59:05.838Z,3.50
2018-12-27T10:04:09.867Z,3.00
2018-12-27T10:09:14.071Z,2.75
2018-12-27T10:14:18.284Z,2.75
2018-12-27T10:19:22.316Z,3.00
2018-12-27T10:24:26.561Z,3.40
2018-12-27T10:29:30.710Z,2.25
2018-12-27T10:34:35.390Z,3.00
2018-12-27T10:39:39.490Z,1.20
2018-12-27T10:44:43.558Z,2.50
2018-12-27T10:49:47.585Z,3.00
2018-12-27T10:54:51.590Z,3.00
2018-12-27T10:59:55.887Z,3.00
2018-12-27T11:04:59.905Z,3.25
2018-12-27T11:10:04.356Z,1.75
2018-12-27T11:15:08.456Z,3.00
2018-12-27T11:20:12.636Z,2.00
2018-12-27T11:25:16.664Z,1.00
2018-12-27T11:30:21.013Z,2.80
2018-12-27T11:35:25.057Z,2.00
2018-12-27T11:40:29.071Z,2.00
2018-12-27T11:45:33.106Z,2.00
2018-12-27T11:50:37.137Z,2.00
2018-12-27T11:55:41.136Z,3.00
2018-12-27T12:00:45.278Z,2.00
2018-12-27T12:05:49.440Z,2.00
2018-12-27T12:10:53.456Z,2.25
2018-12-27T12:15:57.464Z,2.00
2018-12-27T12:49:03.481Z,2.25
2018-12-27T12:54:07.543Z,1.60
2018-12-27T13:04:41.992Z,1.60
2018-12-27T13:09:46.066Z,1.00
2018-12-27T13:14:50.093Z,1.20
2018-12-27T13:19:54.107Z,1.00
2018-12-27T13:24:58.188Z,2.00
2018-12-27T13:30:02.243Z,2.00
2018-12-27T13:35:06.821Z,1.00
2018-12-27T13:40:11.001Z,1.00
2018-12-27T13:45:15.017Z,0.80
2018-12-27T13:50:19.046Z,1.20
2018-12-27T13:55:23.154Z,1.20
2018-12-27T14:00:27.192Z,1.00
2018-12-27T14:05:31.242Z,1.60
2018-12-27T14:10:35.351Z,1.00
2018-12-27T14:15:39.374Z,1.00
2018-12-27T14:20:43.427Z,1.20
2018-12-27T14:25:47.534Z,1.50
2018-12-27T14:30:51.694Z,1.00
2018-12-27T14:35:55.748Z,1.00
2018-12-27T14:40:59.813Z,1.00
2018-12-27T14:46:03.854Z,1.50
2018-12-27T14:51:08.472Z,1.00
2018-12-27T14:56:12.648Z,1.00
2018-12-27T15:01:16.859Z,1.50
2018-12-27T15:06:20.910Z,1.00
2018-12-27T15:11:24.957Z,0.25
2018-12-27T15:16:29.057Z,1.25
2018-12-27T15:21:33.132Z,1.00
2018-12-27T15:26:37.164Z,0.60
2018-12-27T15:31:41.331Z,0.80
2018-12-27T15:36:45.350Z,1.00
2018-12-27T15:41:50.225Z,0.00
2018-12-27T15:46:54.306Z,0.00
2018-12-27T15:51:58.473Z,1.00
2018-12-27T15:57:02.548Z,0.00
2018-12-27T16:02:06.768Z,0.00
2018-12-27T16:07:10.860Z,1.00
2018-12-27T16:12:15.174Z,0.00
2018-12-27T16:17:19.310Z,0.00
2018-12-27T16:22:23.393Z,1.00
2018-12-27T16:27:27.809Z,0.00
2018-12-27T16:32:34.014Z,0.20
2018-12-27T16:37:39.584Z,0.00
2018-12-27T16:42:43.651Z,0.75
2018-12-27T16:47:47.736Z,1.00
2018-12-27T16:52:51.917Z,1.00
2018-12-27T16:57:55.974Z,0.80
2018-12-27T17:03:00.139Z,0.20
2018-12-27T17:08:04.468Z,0.80
2018-12-27T17:13:08.559Z,3.00
2018-12-27T17:18:12.685Z,6.75
2018-12-27T17:23:16.862Z,6.50
2018-12-27T17:28:20.897Z,7.75
2018-12-27T17:33:25.005Z,8.75
2018-12-27T17:38:29.177Z,8.50
2018-12-27T17:43:33.209Z,8.20
2018-12-27T17:48:37.278Z,8.40
2018-12-27T17:53:41.531Z,9.20
2018-12-27T17:58:45.598Z,8.40
2018-12-27T18:03:49.675Z,6.75
2018-12-27T18:08:53.810Z,6.75
2018-12-27T18:13:59.390Z,6.75
2018-12-27T18:19:03.436Z,6.00
2018-12-27T18:24:07.466Z,5.80
2018-12-27T18:29:11.559Z,6.75
2018-12-27T18:34:15.600Z,6.00
2018-12-27T18:39:19.647Z,5.50
2018-12-27T18:44:23.689Z,5.50
2018-12-27T18:49:27.880Z,5.25
2018-12-27T18:54:31.901Z,4.33
2018-12-27T18:59:35.941Z,4.25
2018-12-27T19:04:39.997Z,4.50
2018-12-27T19:09:44.018Z,5.00
2018-12-27T19:14:48.954Z,4.50
2018-12-27T19:19:53.082Z,4.00
2018-12-27T19:24:57.103Z,3.40
2018-12-27T19:30:01.210Z,4.00
2018-12-27T19:35:05.756Z,4.00
2018-12-27T19:40:09.899Z,3.80
2018-12-27T19:45:14.273Z,4.00
2018-12-27T19:50:18.475Z,3.25
2018-12-27T19:55:22.653Z,3.20
2018-12-27T20:00:27.769Z,3.50
2018-12-27T20:05:31.962Z,4.00
2018-12-27T20:10:36.011Z,2.80
2018-12-27T20:15:40.235Z,3.00
2018-12-27T20:20:44.296Z,4.50
2018-12-27T20:25:48.345Z,2.60
2018-12-27T20:30:52.391Z,3.00
2018-12-27T20:35:56.422Z,3.60
2018-12-27T20:41:00.475Z,2.00
2018-12-27T20:46:06.155Z,3.00
2018-12-27T20:51:10.416Z,3.20
2018-12-27T20:56:14.520Z,3.00
2018-12-27T21:01:18.646Z,3.25
2018-12-27T21:06:22.668Z,3.00
2018-12-27T21:11:26.712Z,2.67
2018-12-27T21:16:30.906Z,3.00
2018-12-27T21:21:35.032Z,2.40
2018-12-27T21:26:39.081Z,2.00
2018-12-27T21:31:43.213Z,2.50
2018-12-27T21:36:47.292Z,2.20
2018-12-27T21:41:51.349Z,2.20
2018-12-27T21:46:55.400Z,2.20
2018-12-27T21:51:59.587Z,2.00
2018-12-27T21:57:03.646Z,2.75
2018-12-27T22:02:07.746Z,2.00
2018-12-27T22:07:11.845Z,2.50
2018-12-27T22:12:15.864Z,1.75
2018-12-27T22:17:19.992Z,3.00
2018-12-27T22:22:24.037Z,2.75
2018-12-27T22:27:28.084Z,3.00
2018-12-27T22:32:32.172Z,1.40
2018-12-27T22:37:36.211Z,3.00
2018-12-27T22:42:40.321Z,2.25
2018-12-27T22:47:44.939Z,3.00
2018-12-27T22:52:49.020Z,2.80
2018-12-27T22:57:53.045Z,2.00
2018-12-27T23:02:57.087Z,2.00
2018-12-27T23:08:01.274Z,2.20
2018-12-27T23:13:05.389Z,2.00
2018-12-27T23:18:09.419Z,2.00
2018-12-27T23:23:13.465Z,2.00
2018-12-27T23:28:17.568Z,2.00
2018-12-27T23:33:21.594Z,2.25
2018-12-27T23:38:25.662Z,2.50
2018-12-27T23:43:29.728Z,2.00
2018-12-27T23:48:35.164Z,2.00
2018-12-27T23:53:39.463Z,1.80
2018-12-27T23:58:43.642Z,2.00
